Main page
Satellite images 10-day forecastsClimateMarine weather Cyclones Lightning AirportsFAQ Newsletter About
Weather : Europe Africa North America South America Asia Australia-Oceania Others
Languages Contact

London-Southend, England

London Southend Airport

latitude: 51-34N, longitude: 000-42E, elevation: 15 m


METAR: EGMC 040250Z 25010KT CAVOK 03/M02 Q1021
TAF: EGMC 040158Z 0403/0412 28012KT 9999 FEW030

Time: 04:16 (04:16 UTC)

Current weather observation

The report was made 1 hour and 26 minutes ago, at 02:50 UTC
Wind 10 kt from the West/Southwest
Temperature 3°C
Humidity 70%
Pressure 1021 hPa
Visibility 10 km or more
no clouds below 1500 m and no cumulonimbus

Change units

Forecast

The report was made 2 hours and 18 minutes ago, at 01:58 UTC
Forecast valid from 04 at 03 UTC to 04 at 12 UTC
Wind 12 kt from the West
Visibility 10 km or more
Few clouds at a height of 3000 ft
The information on this site is subject to a disclaimer
Weather : Europe Africa North America South America Asia Australia-Oceania Others
Satellite images 10-day forecastsClimateMarine weather Cyclones Lightning AirportsFAQ Languages Contact Newsletter About